Terminal Aerodrome Forecast
Issued by NWS

Home | Current Version | Previous Version | Text Only | Print | Product List | Glossary On
Versions: 1 2 3 4 5 6 7 8 9 10 11 12 13 14 15 16
000
FTUS45 KSLC 190527
TAFBCE
TAF
KBCE 190527Z 1906/2006 VRB04KT P6SM SCT060 BKN120
     FM191800 31008KT P6SM VCSH SCT050 BKN090
     FM200300 28006KT P6SM SCT060 SCT120=

USA.gov is the U.S. government's official web portal to all federal, state and local government web resources and services.